DLH1RE EDDM-EKCH
Flight info
| Callsign | DLH1RE |
|---|---|
| Flight time | 1h 25m |
| Altitude | 36000 |
| Route | INPUD3Q INPUD Y102 UPALA M726 LASGA DCT BKD DCT LUWIL/N0439F380 DCT BERIM/N0434F370 DCT MAKEL N851 GESKA Z711 MONAK |
| Aircraft | A320/M-SDE3FGHIRWY/LB1 |
Departure
| Time | 2026-05-04 15:49 |
|---|---|
| Airport | Munich Airport (EDDM) |
Arrival
| Time | 2026-05-04 17:14 |
|---|---|
| Airport | Copenhagen Kastrup Airport (EKCH) |
| Time | Latitude | Longitude | Altitude | Speed | Heading |
|---|---|---|---|---|---|
| 2026-05-04 15:13 | 48.35209 | 11.79783 | 1486 ft | 0 kts | 83° |
| 2026-05-04 15:35 | 48.35209 | 11.79773 | 1485 ft | 4 kts | 84° |
| 2026-05-04 15:35 | 48.35206 | 11.79732 | 1482 ft | 4 kts | 87° |
| 2026-05-04 15:35 | 48.35206 | 11.79692 | 1478 ft | 4 kts | 94° |
| 2026-05-04 15:36 | 48.35223 | 11.79631 | 1471 ft | 1 kts | 173° |
| 2026-05-04 15:40 | 48.35221 | 11.79631 | 1485 ft | 0 kts | 173° |
| 2026-05-04 15:40 | 48.35213 | 11.79627 | 1473 ft | 4 kts | 205° |
| 2026-05-04 15:41 | 48.35202 | 11.79551 | 1479 ft | 11 kts | 262° |
| 2026-05-04 15:41 | 48.35262 | 11.79486 | 1477 ft | 13 kts | 354° |
| 2026-05-04 15:41 | 48.35362 | 11.79470 | 1477 ft | 18 kts | 353° |
| 2026-05-04 15:41 | 48.35490 | 11.79448 | 1485 ft | 19 kts | 353° |
| 2026-05-04 15:42 | 48.35627 | 11.79424 | 1479 ft | 20 kts | 353° |
| 2026-05-04 15:42 | 48.35771 | 11.79399 | 1485 ft | 21 kts | 353° |
| 2026-05-04 15:42 | 48.35887 | 11.79378 | 1474 ft | 13 kts | 349° |
| 2026-05-04 15:42 | 48.35972 | 11.79336 | 1485 ft | 10 kts | 355° |
| 2026-05-04 15:43 | 48.36047 | 11.79323 | 1481 ft | 13 kts | 353° |
| 2026-05-04 15:43 | 48.36152 | 11.79305 | 1473 ft | 17 kts | 352° |
| 2026-05-04 15:43 | 48.36190 | 11.79160 | 1481 ft | 17 kts | 263° |
| 2026-05-04 15:43 | 48.36175 | 11.78973 | 1475 ft | 19 kts | 263° |
| 2026-05-04 15:44 | 48.36160 | 11.78772 | 1483 ft | 20 kts | 263° |
| 2026-05-04 15:44 | 48.36143 | 11.78558 | 1485 ft | 21 kts | 263° |
| 2026-05-04 15:44 | 48.36127 | 11.78334 | 1485 ft | 22 kts | 264° |
| 2026-05-04 15:44 | 48.36111 | 11.78095 | 1485 ft | 23 kts | 261° |
| 2026-05-04 15:45 | 48.36088 | 11.77847 | 1476 ft | 24 kts | 263° |
| 2026-05-04 15:45 | 48.36069 | 11.77589 | 1480 ft | 25 kts | 263° |
| 2026-05-04 15:45 | 48.36048 | 11.77324 | 1480 ft | 24 kts | 263° |
| 2026-05-04 15:45 | 48.36027 | 11.77116 | 1478 ft | 17 kts | 245° |
| 2026-05-04 15:46 | 48.36040 | 11.76975 | 1480 ft | 12 kts | 335° |
| 2026-05-04 15:46 | 48.36129 | 11.76956 | 1482 ft | 14 kts | 353° |
| 2026-05-04 15:46 | 48.36168 | 11.76949 | 1480 ft | 0 kts | 353° |
| 2026-05-04 15:47 | 48.36170 | 11.76949 | 1481 ft | 2 kts | 353° |
| 2026-05-04 15:47 | 48.36215 | 11.76941 | 1478 ft | 11 kts | 353° |
| 2026-05-04 15:47 | 48.36282 | 11.76939 | 1482 ft | 6 kts | 29° |
| 2026-05-04 15:47 | 48.36292 | 11.76978 | 1481 ft | 0 kts | 82° |
| 2026-05-04 15:48 | 48.36322 | 11.77358 | 1474 ft | 74 kts | 83° |
| 2026-05-04 15:48 | 48.36530 | 11.80089 | 1490 ft | 179 kts | 82° |
| 2026-05-04 15:49 | 48.36670 | 11.81939 | 2128 ft | 178 kts | 82° |
| 2026-05-04 15:49 | 48.36815 | 11.83803 | 2791 ft | 185 kts | 83° |
| 2026-05-04 15:49 | 48.37023 | 11.85826 | 3095 ft | 207 kts | 70° |
| 2026-05-04 15:49 | 48.37980 | 11.87539 | 3371 ft | 231 kts | 26° |
| 2026-05-04 15:50 | 48.39615 | 11.87926 | 3775 ft | 253 kts | 350° |
| 2026-05-04 15:50 | 48.41343 | 11.87098 | 4340 ft | 268 kts | 329° |
| 2026-05-04 15:50 | 48.42722 | 11.85191 | 5191 ft | 272 kts | 307° |
| 2026-05-04 15:50 | 48.43874 | 11.82903 | 6099 ft | 276 kts | 308° |
| 2026-05-04 15:51 | 48.45110 | 11.80658 | 6940 ft | 280 kts | 309° |
| 2026-05-04 15:51 | 48.46392 | 11.78419 | 7801 ft | 284 kts | 309° |
| 2026-05-04 15:51 | 48.47257 | 11.76923 | 8362 ft | 287 kts | 309° |
| 2026-05-04 15:51 | 48.48574 | 11.74647 | 9256 ft | 289 kts | 308° |
| 2026-05-04 15:52 | 48.49890 | 11.72351 | 10135 ft | 290 kts | 308° |
| 2026-05-04 15:52 | 48.51216 | 11.70022 | 10861 ft | 296 kts | 308° |
| 2026-05-04 15:52 | 48.52566 | 11.67642 | 11567 ft | 302 kts | 307° |
| 2026-05-04 15:52 | 48.53939 | 11.65223 | 12322 ft | 306 kts | 308° |
| 2026-05-04 15:53 | 48.55334 | 11.62775 | 13082 ft | 310 kts | 307° |
| 2026-05-04 15:53 | 48.56858 | 11.60442 | 13809 ft | 317 kts | 319° |
| 2026-05-04 15:53 | 48.58779 | 11.58688 | 14262 ft | 335 kts | 335° |
| 2026-05-04 15:53 | 48.61031 | 11.57353 | 14450 ft | 358 kts | 336° |
| 2026-05-04 15:54 | 48.63396 | 11.55994 | 14973 ft | 368 kts | 337° |
| 2026-05-04 15:54 | 48.65826 | 11.54633 | 15561 ft | 375 kts | 337° |
| 2026-05-04 15:54 | 48.68278 | 11.53263 | 16322 ft | 376 kts | 337° |
| 2026-05-04 15:54 | 48.70698 | 11.51881 | 16969 ft | 378 kts | 336° |
| 2026-05-04 15:55 | 48.73167 | 11.50447 | 17608 ft | 382 kts | 336° |
| 2026-05-04 15:55 | 48.75654 | 11.48989 | 18241 ft | 385 kts | 335° |
| 2026-05-04 15:55 | 48.78163 | 11.47518 | 18780 ft | 388 kts | 335° |
| 2026-05-04 15:55 | 48.80693 | 11.46038 | 19347 ft | 390 kts | 336° |
| 2026-05-04 15:56 | 48.83233 | 11.44556 | 19924 ft | 392 kts | 336° |
| 2026-05-04 15:56 | 48.85780 | 11.43071 | 20500 ft | 394 kts | 336° |
| 2026-05-04 15:56 | 48.88348 | 11.41577 | 21039 ft | 396 kts | 336° |
| 2026-05-04 15:56 | 48.90930 | 11.40076 | 21582 ft | 398 kts | 336° |
| 2026-05-04 15:57 | 48.93527 | 11.38562 | 22108 ft | 401 kts | 336° |
| 2026-05-04 15:57 | 48.96137 | 11.37034 | 22627 ft | 403 kts | 335° |
| 2026-05-04 15:57 | 48.98764 | 11.35492 | 23135 ft | 406 kts | 335° |
| 2026-05-04 15:57 | 49.01408 | 11.33942 | 23605 ft | 409 kts | 335° |
| 2026-05-04 15:58 | 49.04069 | 11.32379 | 24012 ft | 411 kts | 335° |
| 2026-05-04 15:58 | 49.06745 | 11.30808 | 24423 ft | 413 kts | 335° |
| 2026-05-04 15:58 | 49.09435 | 11.29229 | 24835 ft | 415 kts | 335° |
| 2026-05-04 15:58 | 49.12138 | 11.27640 | 25250 ft | 417 kts | 335° |
| 2026-05-04 15:59 | 49.14854 | 11.26040 | 25650 ft | 419 kts | 335° |
| 2026-05-04 15:59 | 49.17590 | 11.24426 | 26052 ft | 421 kts | 335° |
| 2026-05-04 15:59 | 49.20373 | 11.22988 | 26434 ft | 426 kts | 343° |
| 2026-05-04 15:59 | 49.23316 | 11.22231 | 26813 ft | 432 kts | 353° |
| 2026-05-04 16:00 | 49.26341 | 11.22162 | 27182 ft | 436 kts | 358° |
| 2026-05-04 16:00 | 49.29385 | 11.22201 | 27557 ft | 439 kts | 357° |
| 2026-05-04 16:00 | 49.32444 | 11.22234 | 27928 ft | 440 kts | 357° |
| 2026-05-04 16:00 | 49.35516 | 11.22264 | 28308 ft | 442 kts | 357° |
| 2026-05-04 16:01 | 49.38602 | 11.22291 | 28671 ft | 444 kts | 357° |
| 2026-05-04 16:01 | 49.41702 | 11.22315 | 29036 ft | 446 kts | 357° |
| 2026-05-04 16:01 | 49.44774 | 11.22338 | 29384 ft | 448 kts | 357° |
| 2026-05-04 16:01 | 49.47901 | 11.22362 | 29726 ft | 450 kts | 357° |
| 2026-05-04 16:02 | 49.51042 | 11.22387 | 30056 ft | 452 kts | 356° |
| 2026-05-04 16:02 | 49.54198 | 11.22412 | 30332 ft | 454 kts | 356° |
| 2026-05-04 16:02 | 49.60545 | 11.22447 | 30881 ft | 458 kts | 356° |
| 2026-05-04 16:03 | 49.63729 | 11.22452 | 31140 ft | 460 kts | 356° |
| 2026-05-04 16:03 | 49.66937 | 11.22455 | 31462 ft | 460 kts | 356° |
| 2026-05-04 16:03 | 49.70132 | 11.22458 | 31859 ft | 458 kts | 356° |
| 2026-05-04 16:03 | 49.73317 | 11.22466 | 32240 ft | 457 kts | 356° |
| 2026-05-04 16:04 | 49.76496 | 11.22472 | 32597 ft | 456 kts | 356° |
| 2026-05-04 16:04 | 49.82825 | 11.22490 | 33367 ft | 454 kts | 356° |
| 2026-05-04 16:04 | 49.85988 | 11.22509 | 33748 ft | 453 kts | 356° |
| 2026-05-04 16:05 | 49.89138 | 11.22529 | 34101 ft | 452 kts | 356° |
| 2026-05-04 16:05 | 49.92281 | 11.22551 | 34419 ft | 451 kts | 356° |
| 2026-05-04 16:05 | 49.98558 | 11.22584 | 34984 ft | 451 kts | 356° |
| 2026-05-04 16:06 | 50.01652 | 11.22599 | 35244 ft | 451 kts | 356° |
| 2026-05-04 16:06 | 50.09401 | 11.22646 | 35858 ft | 451 kts | 356° |
| 2026-05-04 16:07 | 50.22722 | 11.22729 | 35975 ft | 451 kts | 356° |
| 2026-05-04 16:08 | 50.25859 | 11.22748 | 35980 ft | 451 kts | 356° |
| 2026-05-04 16:09 | 50.41555 | 11.23196 | 35981 ft | 453 kts | 0° |
| 2026-05-04 16:10 | 50.54137 | 11.24861 | 35979 ft | 454 kts | 1° |
| 2026-05-04 16:11 | 50.66741 | 11.26282 | 35979 ft | 454 kts | 0° |
| 2026-05-04 16:12 | 50.85587 | 11.28432 | 35977 ft | 453 kts | 0° |
| 2026-05-04 16:13 | 50.98181 | 11.29876 | 35975 ft | 453 kts | 0° |
| 2026-05-04 16:14 | 51.10691 | 11.31319 | 35975 ft | 449 kts | 360° |
| 2026-05-04 16:16 | 51.26249 | 11.33124 | 35972 ft | 449 kts | 360° |
| 2026-05-04 16:17 | 51.41826 | 11.34950 | 35974 ft | 449 kts | 360° |
| 2026-05-04 16:18 | 51.54298 | 11.36415 | 35980 ft | 449 kts | 360° |
| 2026-05-04 16:19 | 51.69893 | 11.38269 | 35983 ft | 450 kts | 360° |
| 2026-05-04 16:20 | 51.85487 | 11.40106 | 35991 ft | 449 kts | 359° |
| 2026-05-04 16:22 | 52.01018 | 11.41989 | 35990 ft | 448 kts | 359° |
| 2026-05-04 16:23 | 52.19676 | 11.44240 | 35992 ft | 448 kts | 359° |
| 2026-05-04 16:25 | 52.38332 | 11.46532 | 35984 ft | 448 kts | 359° |
| 2026-05-04 16:26 | 52.60096 | 11.49208 | 35974 ft | 448 kts | 359° |
| 2026-05-04 16:28 | 52.75663 | 11.51133 | 35975 ft | 449 kts | 359° |
| 2026-05-04 16:29 | 52.97434 | 11.53858 | 35978 ft | 449 kts | 359° |
| 2026-05-04 16:30 | 53.06712 | 11.53904 | 35977 ft | 440 kts | 347° |
| 2026-05-04 16:31 | 53.12785 | 11.52561 | 35972 ft | 440 kts | 347° |
| 2026-05-04 16:32 | 53.31024 | 11.48529 | 35974 ft | 441 kts | 347° |
| 2026-05-04 16:33 | 53.43170 | 11.46007 | 35972 ft | 444 kts | 354° |
| 2026-05-04 16:34 | 53.52484 | 11.46225 | 35980 ft | 446 kts | 356° |
| 2026-05-04 16:35 | 53.71134 | 11.46797 | 35980 ft | 449 kts | 359° |
| 2026-05-04 16:36 | 53.80366 | 11.50288 | 35981 ft | 456 kts | 11° |
| 2026-05-04 16:37 | 53.89568 | 11.54477 | 35537 ft | 455 kts | 10° |
| 2026-05-04 16:37 | 53.95611 | 11.57223 | 34567 ft | 449 kts | 10° |
| 2026-05-04 16:38 | 54.01608 | 11.59967 | 33592 ft | 443 kts | 10° |
| 2026-05-04 16:39 | 54.10438 | 11.64021 | 32125 ft | 433 kts | 10° |
| 2026-05-04 16:39 | 54.16217 | 11.66688 | 31208 ft | 427 kts | 9° |
| 2026-05-04 16:40 | 54.21909 | 11.69317 | 30305 ft | 421 kts | 9° |
| 2026-05-04 16:40 | 54.27522 | 11.71926 | 29320 ft | 414 kts | 10° |
| 2026-05-04 16:41 | 54.33040 | 11.74476 | 28334 ft | 408 kts | 10° |
| 2026-05-04 16:41 | 54.41181 | 11.78274 | 26897 ft | 400 kts | 10° |
| 2026-05-04 16:42 | 54.48961 | 11.83187 | 25542 ft | 397 kts | 21° |
| 2026-05-04 16:43 | 54.53909 | 11.87078 | 24699 ft | 391 kts | 21° |
| 2026-05-04 16:43 | 54.58832 | 11.90947 | 23900 ft | 385 kts | 21° |
| 2026-05-04 16:43 | 54.61234 | 11.92843 | 23780 ft | 374 kts | 21° |
| 2026-05-04 16:44 | 54.66525 | 12.06296 | 22326 ft | 359 kts | 96° |
| 2026-05-04 16:45 | 54.64823 | 12.14247 | 21098 ft | 351 kts | 134° |
| 2026-05-04 16:46 | 54.58848 | 12.19745 | 19838 ft | 319 kts | 183° |
| 2026-05-04 16:46 | 54.54631 | 12.18315 | 19064 ft | 306 kts | 204° |
| 2026-05-04 16:47 | 54.51374 | 12.14065 | 18347 ft | 296 kts | 235° |
| 2026-05-04 16:47 | 54.49785 | 12.07628 | 17553 ft | 294 kts | 259° |
| 2026-05-04 16:48 | 54.51085 | 11.97435 | 16436 ft | 305 kts | 300° |
| 2026-05-04 16:48 | 54.52526 | 11.94721 | 16083 ft | 311 kts | 315° |
| 2026-05-04 16:49 | 54.56361 | 11.91665 | 15415 ft | 324 kts | 346° |
| 2026-05-04 16:49 | 54.60878 | 11.92530 | 14749 ft | 335 kts | 18° |
| 2026-05-04 16:50 | 54.64885 | 11.96666 | 14093 ft | 336 kts | 31° |
| 2026-05-04 16:50 | 54.68776 | 12.01098 | 13438 ft | 333 kts | 31° |
| 2026-05-04 16:51 | 54.72626 | 12.05524 | 12755 ft | 330 kts | 32° |
| 2026-05-04 16:51 | 54.74531 | 12.07731 | 12416 ft | 329 kts | 32° |
| 2026-05-04 16:51 | 54.78316 | 12.12127 | 11739 ft | 326 kts | 32° |
| 2026-05-04 16:52 | 54.82057 | 12.16473 | 11070 ft | 322 kts | 32° |
| 2026-05-04 16:52 | 54.83919 | 12.18637 | 10745 ft | 320 kts | 32° |
| 2026-05-04 16:53 | 54.87594 | 12.22923 | 10083 ft | 317 kts | 32° |
| 2026-05-04 16:53 | 54.93317 | 12.27910 | 9040 ft | 302 kts | 358° |
| 2026-05-04 16:54 | 54.95353 | 12.27485 | 8941 ft | 292 kts | 337° |
| 2026-05-04 16:55 | 54.99493 | 12.17332 | 8960 ft | 264 kts | 263° |
| 2026-05-04 16:55 | 54.99014 | 12.11869 | 8964 ft | 263 kts | 258° |
| 2026-05-04 16:56 | 54.98415 | 12.05571 | 8962 ft | 263 kts | 258° |
| 2026-05-04 16:56 | 54.97523 | 11.96126 | 8961 ft | 263 kts | 258° |
| 2026-05-04 16:57 | 54.97223 | 11.92982 | 8966 ft | 264 kts | 257° |
| 2026-05-04 16:57 | 54.97152 | 11.86643 | 8964 ft | 272 kts | 285° |
| 2026-05-04 16:58 | 55.01929 | 11.81884 | 8967 ft | 305 kts | 10° |
| 2026-05-04 16:58 | 55.03836 | 11.83521 | 8968 ft | 310 kts | 42° |
| 2026-05-04 16:59 | 55.05898 | 11.90024 | 8963 ft | 310 kts | 69° |
| 2026-05-04 17:00 | 55.09164 | 12.03930 | 8711 ft | 309 kts | 70° |
| 2026-05-04 17:00 | 55.11586 | 12.14341 | 8330 ft | 307 kts | 70° |
| 2026-05-04 17:01 | 55.13190 | 12.21256 | 8073 ft | 307 kts | 70° |
| 2026-05-04 17:01 | 55.14781 | 12.28156 | 7817 ft | 306 kts | 70° |
| 2026-05-04 17:02 | 55.16363 | 12.35027 | 7563 ft | 304 kts | 70° |
| 2026-05-04 17:02 | 55.17938 | 12.41891 | 7319 ft | 303 kts | 70° |
| 2026-05-04 17:03 | 55.18722 | 12.45312 | 7195 ft | 303 kts | 70° |
| 2026-05-04 17:03 | 55.19493 | 12.48684 | 7073 ft | 302 kts | 70° |
| 2026-05-04 17:03 | 55.21046 | 12.55502 | 6822 ft | 301 kts | 70° |
| 2026-05-04 17:04 | 55.22947 | 12.62050 | 6575 ft | 301 kts | 50° |
| 2026-05-04 17:04 | 55.26191 | 12.66515 | 6339 ft | 297 kts | 22° |
| 2026-05-04 17:05 | 55.30058 | 12.68854 | 6084 ft | 293 kts | 15° |
| 2026-05-04 17:05 | 55.33901 | 12.71055 | 5826 ft | 291 kts | 15° |
| 2026-05-04 17:06 | 55.37743 | 12.73247 | 5579 ft | 289 kts | 15° |
| 2026-05-04 17:06 | 55.39651 | 12.74334 | 5449 ft | 288 kts | 15° |
| 2026-05-04 17:07 | 55.43459 | 12.76506 | 5200 ft | 287 kts | 15° |
| 2026-05-04 17:07 | 55.44715 | 12.77224 | 5119 ft | 286 kts | 15° |
| 2026-05-04 17:07 | 55.47237 | 12.78671 | 4954 ft | 284 kts | 15° |
| 2026-05-04 17:07 | 55.49105 | 12.79747 | 4678 ft | 281 kts | 15° |
| 2026-05-04 17:08 | 55.50961 | 12.80818 | 4417 ft | 280 kts | 15° |
| 2026-05-04 17:08 | 55.54651 | 12.82951 | 4015 ft | 277 kts | 15° |
| 2026-05-04 17:08 | 55.56432 | 12.84024 | 3997 ft | 262 kts | 17° |
| 2026-05-04 17:09 | 55.58078 | 12.85163 | 4004 ft | 249 kts | 19° |
| 2026-05-04 17:09 | 55.59674 | 12.86269 | 3824 ft | 244 kts | 16° |
| 2026-05-04 17:09 | 55.61278 | 12.87202 | 3505 ft | 242 kts | 11° |
| 2026-05-04 17:10 | 55.64550 | 12.88268 | 2885 ft | 236 kts | 6° |
| 2026-05-04 17:10 | 55.68946 | 12.87038 | 1994 ft | 209 kts | 304° |
| 2026-05-04 17:11 | 55.69664 | 12.84950 | 2020 ft | 193 kts | 297° |
| 2026-05-04 17:11 | 55.70272 | 12.82893 | 2019 ft | 185 kts | 295° |
| 2026-05-04 17:11 | 55.70359 | 12.78721 | 1995 ft | 179 kts | 228° |
| 2026-05-04 17:12 | 55.69366 | 12.77377 | 1849 ft | 180 kts | 219° |
| 2026-05-04 17:12 | 55.67483 | 12.74450 | 1401 ft | 180 kts | 221° |
| 2026-05-04 17:13 | 55.64907 | 12.70437 | 675 ft | 142 kts | 223° |
| 2026-05-04 17:14 | 55.62780 | 12.67126 | 119 ft | 134 kts | 225° |
| 2026-05-04 17:14 | 55.62094 | 12.66061 | 16 ft | 117 kts | 221° |
| 2026-05-04 17:14 | 55.61606 | 12.65176 | 17 ft | 17 kts | 264° |
| 2026-05-04 17:15 | 55.61629 | 12.64996 | 16 ft | 13 kts | 299° |
| 2026-05-04 17:15 | 55.61775 | 12.64787 | 20 ft | 14 kts | 354° |
| 2026-05-04 17:16 | 55.61893 | 12.64817 | 18 ft | 0 kts | 32° |
| 2026-05-04 17:17 | 55.61956 | 12.64886 | 21 ft | 10 kts | 32° |
| 2026-05-04 17:18 | 55.62015 | 12.64952 | 20 ft | 9 kts | 31° |
| 2026-05-04 17:18 | 55.62094 | 12.65047 | 23 ft | 4 kts | 33° |
| 2026-05-04 17:19 | 55.62125 | 12.65083 | 24 ft | 7 kts | 33° |
| 2026-05-04 17:19 | 55.62246 | 12.65150 | 23 ft | 10 kts | 319° |
| 2026-05-04 17:20 | 55.62338 | 12.64911 | 24 ft | 13 kts | 301° |
| 2026-05-04 17:20 | 55.62436 | 12.64643 | 22 ft | 13 kts | 304° |
| 2026-05-04 17:20 | 55.62491 | 12.64493 | 23 ft | 14 kts | 301° |
| 2026-05-04 17:21 | 55.62573 | 12.64269 | 23 ft | 7 kts | 302° |
| 2026-05-04 17:21 | 55.62637 | 12.64197 | 23 ft | 4 kts | 22° |
| 2026-05-04 17:22 | 55.62656 | 12.64217 | 23 ft | 3 kts | 31° |
| 2026-05-04 17:22 | 55.62670 | 12.64234 | 24 ft | 2 kts | 34° |
| 2026-05-04 17:23 | 55.62673 | 12.64237 | 23 ft | 0 kts | 34° |